createdAt,value
2017-10-26T00:01:58.644Z,99.10
2017-10-26T00:04:25.919Z,99.20
2017-10-26T00:06:53.106Z,99.10
2017-10-26T00:09:19.649Z,99.10
2017-10-26T00:11:46.812Z,99.20
2017-10-26T00:14:14.010Z,99.30
2017-10-26T00:16:40.786Z,99.30
2017-10-26T00:19:07.316Z,99.30
2017-10-26T00:21:33.739Z,99.40
2017-10-26T00:24:00.170Z,99.50
2017-10-26T00:26:26.686Z,99.50
2017-10-26T00:28:53.241Z,99.60
2017-10-26T00:31:20.439Z,99.50
2017-10-26T00:33:46.972Z,99.50
2017-10-26T00:36:13.403Z,99.30
2017-10-26T00:38:39.831Z,99.40
2017-10-26T00:41:06.263Z,99.60
2017-10-26T00:43:32.694Z,99.50
2017-10-26T00:45:59.883Z,99.50
2017-10-26T00:48:26.426Z,99.50
2017-10-26T00:50:53.700Z,99.60
2017-10-26T00:53:20.262Z,99.60
2017-10-26T00:55:46.696Z,99.50
2017-10-26T00:58:13.941Z,99.30
2017-10-26T01:00:40.548Z,99.50
2017-10-26T01:03:07.810Z,99.50
2017-10-26T01:05:35.098Z,99.40
2017-10-26T01:08:02.372Z,99.30
2017-10-26T01:10:29.668Z,99.30
2017-10-26T01:12:56.210Z,99.20
2017-10-26T01:15:22.733Z,99.20
2017-10-26T01:17:49.320Z,99.20
2017-10-26T01:20:16.697Z,99.10
2017-10-26T01:22:43.974Z,99.10
2017-10-26T01:25:10.639Z,99.10
2017-10-26T01:27:37.193Z,99.10
2017-10-26T01:30:03.749Z,99.00
2017-10-26T01:32:31.025Z,99.00
2017-10-26T01:34:58.291Z,99.00
2017-10-26T01:37:25.572Z,99.00
2017-10-26T01:39:52.830Z,99.10
2017-10-26T01:42:19.326Z,99.10
2017-10-26T01:44:45.810Z,99.10
2017-10-26T01:47:12.338Z,99.10
2017-10-26T01:49:38.876Z,99.20
2017-10-26T01:52:06.688Z,99.30
2017-10-26T01:54:33.340Z,99.30
2017-10-26T01:56:59.916Z,99.30
2017-10-26T01:59:26.472Z,99.40
2017-10-26T02:01:53.043Z,99.50
2017-10-26T02:04:19.584Z,99.60
2017-10-26T02:06:46.116Z,99.60
2017-10-26T02:09:12.657Z,99.60
2017-10-26T02:11:39.970Z,99.50
2017-10-26T02:14:06.515Z,99.50
2017-10-26T02:16:33.066Z,99.50
2017-10-26T02:18:59.731Z,99.80
2017-10-26T02:21:26.285Z,99.40
2017-10-26T02:23:52.805Z,99.40
2017-10-26T02:26:19.401Z,99.50
2017-10-26T02:28:59.052Z,99.40
2017-10-26T02:31:34.507Z,99.40
2017-10-26T02:34:02.089Z,99.60
2017-10-26T02:36:28.647Z,99.40
2017-10-26T02:38:55.308Z,99.40
2017-10-26T02:41:22.584Z,99.30
2017-10-26T02:43:49.140Z,99.30
2017-10-26T02:46:15.634Z,99.30
2017-10-26T02:48:42.083Z,99.40
2017-10-26T02:51:08.530Z,99.40
2017-10-26T02:53:35.078Z,99.40
2017-10-26T02:56:01.497Z,99.50
2017-10-26T02:58:28.900Z,99.60
2017-10-26T03:00:56.182Z,99.70
2017-10-26T03:03:22.830Z,99.70
2017-10-26T03:05:50.315Z,99.80
2017-10-26T03:08:17.551Z,99.80
2017-10-26T03:10:44.149Z,99.80
2017-10-26T03:13:10.705Z,99.80
2017-10-26T03:15:38.090Z,99.80
2017-10-26T03:18:04.651Z,99.80
2017-10-26T03:20:31.199Z,99.90
2017-10-26T03:22:58.582Z,99.80
2017-10-26T03:25:25.201Z,99.80
2017-10-26T03:27:51.695Z,99.90
2017-10-26T03:30:18.788Z,99.90
2017-10-26T03:32:45.218Z,99.90
2017-10-26T03:35:11.633Z,99.90
2017-10-26T03:37:38.132Z,99.90
2017-10-26T03:40:05.405Z,99.90
2017-10-26T03:42:32.725Z,99.90
2017-10-26T03:44:59.182Z,99.90
2017-10-26T03:47:25.650Z,99.90
2017-10-26T03:49:52.130Z,99.90
2017-10-26T03:52:19.424Z,99.90
2017-10-26T03:54:46.700Z,99.90
2017-10-26T03:57:13.890Z,99.90
2017-10-26T03:59:40.432Z,99.90
2017-10-26T04:02:07.704Z,99.90
2017-10-26T04:04:34.160Z,99.90
2017-10-26T04:07:01.538Z,99.90
2017-10-26T04:09:28.732Z,99.90
2017-10-26T04:11:55.268Z,99.90
2017-10-26T04:14:21.927Z,99.90
2017-10-26T04:16:49.125Z,99.90
2017-10-26T04:19:15.571Z,99.90
2017-10-26T04:21:42.122Z,99.90
2017-10-26T04:24:08.651Z,99.90
2017-10-26T04:26:35.932Z,99.90
2017-10-26T04:29:03.142Z,99.90
2017-10-26T04:31:29.785Z,99.90
2017-10-26T04:33:56.309Z,99.90
2017-10-26T04:36:23.000Z,99.90
2017-10-26T04:38:50.376Z,99.90
2017-10-26T04:41:17.673Z,99.90
2017-10-26T04:43:44.157Z,99.90
2017-10-26T04:46:10.768Z,99.90
2017-10-26T04:48:38.044Z,99.90
2017-10-26T04:51:05.118Z,99.90
2017-10-26T04:53:31.672Z,99.90
2017-10-26T04:55:58.893Z,99.90
2017-10-26T04:58:25.402Z,99.90
2017-10-26T05:00:51.870Z,99.90
2017-10-26T05:03:18.418Z,99.90
2017-10-26T05:05:44.982Z,99.90
2017-10-26T05:08:11.474Z,99.90
2017-10-26T05:10:37.944Z,99.90
2017-10-26T05:13:04.389Z,99.90
2017-10-26T05:15:30.842Z,99.90
2017-10-26T05:17:57.335Z,99.90
2017-10-26T05:20:23.761Z,99.90
2017-10-26T05:22:50.221Z,99.90
2017-10-26T05:25:16.729Z,99.90
2017-10-26T05:27:44.003Z,99.90
2017-10-26T05:30:11.277Z,99.90
2017-10-26T05:32:38.438Z,99.90
2017-10-26T05:35:05.787Z,99.90
2017-10-26T05:37:32.295Z,99.90
2017-10-26T05:39:58.840Z,99.90
2017-10-26T05:42:25.344Z,99.90
2017-10-26T05:44:51.860Z,99.90
2017-10-26T05:47:18.418Z,99.90
2017-10-26T05:49:44.971Z,99.90
2017-10-26T05:52:12.240Z,99.90
2017-10-26T05:54:39.523Z,99.90
2017-10-26T05:57:06.079Z,99.90
2017-10-26T05:59:33.353Z,99.90
2017-10-26T06:01:59.914Z,99.90
2017-10-26T06:04:26.471Z,99.90
2017-10-26T06:06:53.763Z,99.90
2017-10-26T06:09:20.201Z,99.90
2017-10-26T06:11:47.491Z,99.90
2017-10-26T06:14:14.035Z,99.90
2017-10-26T06:16:41.219Z,99.90
2017-10-26T06:19:07.673Z,99.90
2017-10-26T06:21:34.189Z,99.90
2017-10-26T06:24:00.665Z,99.90
2017-10-26T06:26:27.867Z,99.90
2017-10-26T06:28:54.283Z,99.90
2017-10-26T06:31:20.743Z,99.90
2017-10-26T06:33:47.218Z,99.90
2017-10-26T06:36:14.494Z,99.90
2017-10-26T06:38:40.958Z,99.90
2017-10-26T06:41:07.615Z,99.70
2017-10-26T06:43:34.168Z,99.50
2017-10-26T06:46:01.692Z,99.10
2017-10-26T06:48:28.207Z,99.10
2017-10-26T06:50:54.765Z,98.90
2017-10-26T06:53:21.340Z,98.80
2017-10-26T06:55:47.852Z,98.60
2017-10-26T06:58:14.339Z,98.60
2017-10-26T07:00:40.807Z,98.50
2017-10-26T07:03:07.351Z,98.40
2017-10-26T07:05:34.586Z,98.20
2017-10-26T07:08:01.188Z,98.10
2017-10-26T07:10:27.745Z,98.20
2017-10-26T07:12:54.937Z,98.20
2017-10-26T07:15:21.474Z,98.20
2017-10-26T07:17:48.851Z,98.10
2017-10-26T07:20:15.308Z,98.10
2017-10-26T07:22:41.864Z,98.00
2017-10-26T07:25:09.142Z,98.10
2017-10-26T07:27:36.340Z,98.10
2017-10-26T07:30:02.832Z,98.10
2017-10-26T07:32:29.308Z,98.10
2017-10-26T07:34:56.509Z,98.10
2017-10-26T07:37:23.590Z,98.10
2017-10-26T07:39:50.228Z,98.10
2017-10-26T07:42:16.791Z,98.10
2017-10-26T07:44:43.346Z,97.90
2017-10-26T07:47:10.724Z,97.20
2017-10-26T07:49:37.801Z,97.20
2017-10-26T07:52:04.321Z,97.00
2017-10-26T07:54:30.915Z,96.90
2017-10-26T07:56:57.468Z,96.70
2017-10-26T07:59:24.026Z,96.70
2017-10-26T08:01:50.585Z,97.20
2017-10-26T08:04:17.143Z,96.90
2017-10-26T08:06:43.619Z,96.80
2017-10-26T08:09:10.157Z,96.60
2017-10-26T08:11:37.345Z,95.60
2017-10-26T08:14:03.865Z,95.60
2017-10-26T08:16:30.432Z,94.50
2017-10-26T08:18:57.632Z,92.40
2017-10-26T08:21:24.176Z,92.40
2017-10-26T08:23:50.632Z,91.80
2017-10-26T08:26:17.880Z,92.00
2017-10-26T08:28:46.548Z,92.00
2017-10-26T08:31:13.172Z,92.20
2017-10-26T08:33:40.366Z,91.80
2017-10-26T08:36:06.903Z,91.80
2017-10-26T08:38:34.178Z,91.30
2017-10-26T08:41:01.451Z,91.10
2017-10-26T08:43:27.940Z,91.10
2017-10-26T08:45:54.364Z,90.90
2017-10-26T08:48:21.638Z,90.90
2017-10-26T08:50:48.908Z,91.20
2017-10-26T08:53:16.289Z,91.20
2017-10-26T08:55:43.665Z,91.30
2017-10-26T08:58:11.043Z,90.80
2017-10-26T09:00:38.729Z,90.80
2017-10-26T09:03:06.048Z,90.30
2017-10-26T09:05:34.110Z,88.30
2017-10-26T09:08:00.755Z,88.20
2017-10-26T09:10:28.077Z,86.90
2017-10-26T09:12:54.586Z,86.90
2017-10-26T09:15:21.878Z,84.50
2017-10-26T09:17:48.434Z,84.40
2017-10-26T09:20:14.931Z,83.10
2017-10-26T09:22:41.536Z,81.70
2017-10-26T09:25:08.846Z,80.50
2017-10-26T09:27:35.472Z,80.50
2017-10-26T09:30:02.850Z,79.80
2017-10-26T09:32:29.396Z,79.80
2017-10-26T09:34:56.787Z,79.10
2017-10-26T09:37:23.343Z,79.00
2017-10-26T09:39:50.720Z,80.90
2017-10-26T09:42:18.096Z,81.20
2017-10-26T09:44:44.632Z,81.20
2017-10-26T09:47:11.214Z,81.30
2017-10-26T09:49:37.873Z,81.40
2017-10-26T09:52:05.183Z,81.00
2017-10-26T09:54:31.727Z,80.90
2017-10-26T09:56:58.269Z,81.10
2017-10-26T09:59:24.825Z,81.10
2017-10-26T10:01:52.113Z,81.90
2017-10-26T10:04:18.654Z,81.90
2017-10-26T10:06:45.884Z,81.20
2017-10-26T10:09:13.515Z,81.20
2017-10-26T10:11:40.160Z,80.10
2017-10-26T10:14:07.460Z,78.70
2017-10-26T10:16:34.112Z,78.60
2017-10-26T10:19:00.872Z,79.00
2017-10-26T10:21:27.428Z,80.40
2017-10-26T10:23:54.658Z,81.50
2017-10-26T10:26:21.262Z,81.50
2017-10-26T10:28:48.552Z,79.60
2017-10-26T10:31:15.123Z,79.50
2017-10-26T10:33:41.693Z,79.50
2017-10-26T10:36:08.281Z,79.30
2017-10-26T10:38:34.867Z,78.00
2017-10-26T10:41:02.555Z,77.30
2017-10-26T10:43:29.882Z,76.50
2017-10-26T10:45:56.445Z,76.50
2017-10-26T10:48:24.073Z,76.80
2017-10-26T10:50:50.733Z,76.10
2017-10-26T10:53:18.009Z,73.40
2017-10-26T10:55:44.669Z,73.40
2017-10-26T10:58:11.329Z,74.10
2017-10-26T11:00:37.990Z,73.90
2017-10-26T11:03:04.533Z,73.00
2017-10-26T11:05:31.065Z,71.70
2017-10-26T11:07:57.665Z,71.20
2017-10-26T11:10:25.052Z,71.90
2017-10-26T11:12:51.600Z,71.90
2017-10-26T11:15:18.266Z,71.90
2017-10-26T11:17:44.868Z,72.00
2017-10-26T11:20:11.480Z,71.90
2017-10-26T11:22:38.855Z,72.00
2017-10-26T11:25:06.118Z,71.90
2017-10-26T11:27:33.407Z,71.90
2017-10-26T11:30:00.813Z,71.90
2017-10-26T11:32:27.443Z,71.70
2017-10-26T11:34:54.103Z,72.30
2017-10-26T11:37:21.377Z,72.90
2017-10-26T11:39:47.931Z,73.00
2017-10-26T11:42:15.312Z,74.10
2017-10-26T11:44:42.586Z,74.10
2017-10-26T11:47:09.120Z,74.10
2017-10-26T11:49:35.706Z,73.50
2017-10-26T11:52:03.019Z,73.00
2017-10-26T11:54:29.655Z,73.00
2017-10-26T11:56:56.214Z,73.20
2017-10-26T11:59:22.861Z,72.40
2017-10-26T12:01:49.411Z,72.70
2017-10-26T12:04:15.934Z,73.60
2017-10-26T12:06:42.537Z,74.20
2017-10-26T12:09:09.127Z,74.30
2017-10-26T12:11:35.650Z,74.20
2017-10-26T12:14:02.930Z,73.80
2017-10-26T12:16:29.586Z,73.80
2017-10-26T12:18:56.248Z,73.90
2017-10-26T12:21:23.528Z,73.80
2017-10-26T12:23:50.124Z,73.10
2017-10-26T12:26:16.742Z,74.20
2017-10-26T12:28:44.122Z,75.10
2017-10-26T12:31:10.879Z,75.10
2017-10-26T12:33:38.258Z,76.10
2017-10-26T12:36:05.735Z,77.20
2017-10-26T12:38:33.418Z,74.70
2017-10-26T12:41:00.801Z,74.40
2017-10-26T12:43:27.378Z,74.40
2017-10-26T12:45:54.017Z,74.60
2017-10-26T12:48:21.154Z,74.80
2017-10-26T12:50:48.455Z,72.80
2017-10-26T12:53:15.720Z,73.10
2017-10-26T12:55:43.011Z,72.80
2017-10-26T12:58:10.343Z,73.40
2017-10-26T13:00:37.534Z,73.40
2017-10-26T13:03:04.072Z,73.70
2017-10-26T13:05:30.609Z,73.80
2017-10-26T13:07:57.144Z,74.10
2017-10-26T13:10:23.794Z,74.10
2017-10-26T13:12:50.375Z,74.50
2017-10-26T13:15:17.012Z,74.80
2017-10-26T13:17:44.493Z,75.40
2017-10-26T13:20:11.120Z,75.30
2017-10-26T13:22:37.610Z,75.70
2017-10-26T13:25:04.884Z,76.30
2017-10-26T13:27:31.385Z,77.20
2017-10-26T13:29:57.829Z,77.60
2017-10-26T13:32:24.563Z,78.00
2017-10-26T13:34:51.107Z,78.30
2017-10-26T13:37:18.373Z,79.10
2017-10-26T13:39:45.603Z,79.60
2017-10-26T13:42:12.224Z,79.20
2017-10-26T13:44:39.439Z,79.70
2017-10-26T13:47:05.904Z,79.60
2017-10-26T13:49:32.513Z,80.00
2017-10-26T13:51:59.071Z,80.50
2017-10-26T13:54:26.283Z,80.40
2017-10-26T13:56:52.709Z,80.40
2017-10-26T13:59:19.260Z,80.60
2017-10-26T14:01:45.797Z,80.40
2017-10-26T14:04:12.318Z,81.00
2017-10-26T14:06:38.934Z,82.10
2017-10-26T14:09:05.478Z,81.40
2017-10-26T14:11:32.773Z,81.20
2017-10-26T14:13:59.325Z,81.20
2017-10-26T14:16:25.884Z,81.30
2017-10-26T14:18:53.772Z,81.50
2017-10-26T14:21:21.250Z,81.70
2017-10-26T14:23:48.525Z,81.50
2017-10-26T14:26:15.191Z,81.40
2017-10-26T14:28:41.948Z,81.80
2017-10-26T14:31:09.224Z,82.60
2017-10-26T14:33:35.782Z,82.50
2017-10-26T14:36:03.494Z,83.70
2017-10-26T14:38:30.024Z,83.70
2017-10-26T14:40:58.248Z,83.00
2017-10-26T14:43:24.793Z,82.90
2017-10-26T14:45:51.440Z,83.20
2017-10-26T14:48:18.714Z,83.80
2017-10-26T14:50:45.905Z,83.90
2017-10-26T14:53:12.443Z,83.90
2017-10-26T14:55:39.539Z,83.80
2017-10-26T14:58:06.046Z,83.70
2017-10-26T15:00:32.559Z,84.10
2017-10-26T15:02:59.163Z,84.30
2017-10-26T15:05:25.647Z,84.70
2017-10-26T15:07:53.227Z,85.00
2017-10-26T15:10:19.812Z,85.50
2017-10-26T15:12:46.445Z,85.60
2017-10-26T15:15:13.727Z,86.20
2017-10-26T15:17:40.388Z,86.20
2017-10-26T15:20:07.040Z,86.60
2017-10-26T15:22:35.340Z,87.10
2017-10-26T15:25:02.001Z,87.10
2017-10-26T15:27:29.274Z,87.50
2017-10-26T15:29:56.554Z,87.50
2017-10-26T15:32:23.620Z,87.70
2017-10-26T15:34:50.896Z,88.10
2017-10-26T15:37:17.553Z,88.10
2017-10-26T15:39:44.215Z,88.70
2017-10-26T15:42:11.181Z,88.80
2017-10-26T15:44:38.455Z,88.50
2017-10-26T15:47:05.592Z,88.50
2017-10-26T15:49:32.901Z,89.10
2017-10-26T15:51:59.407Z,89.60
2017-10-26T15:54:26.121Z,89.50
2017-10-26T15:56:52.701Z,89.80
2017-10-26T15:59:19.241Z,90.00
2017-10-26T16:01:45.812Z,90.10
2017-10-26T16:04:12.560Z,90.30
2017-10-26T16:06:39.052Z,90.20
2017-10-26T16:09:05.677Z,90.40
2017-10-26T16:11:32.236Z,90.50
2017-10-26T16:13:58.722Z,90.50
2017-10-26T16:16:25.354Z,90.50
2017-10-26T16:18:52.114Z,90.80
2017-10-26T16:21:18.665Z,90.90
2017-10-26T16:23:46.785Z,91.20
2017-10-26T16:26:13.427Z,91.10
2017-10-26T16:28:39.986Z,91.50
2017-10-26T16:31:06.543Z,91.30
2017-10-26T16:33:34.123Z,91.60
2017-10-26T16:36:01.347Z,91.70
2017-10-26T16:38:30.157Z,92.00
2017-10-26T16:40:56.766Z,91.60
2017-10-26T16:43:24.143Z,92.00
2017-10-26T16:45:50.700Z,92.00
2017-10-26T16:48:17.977Z,92.00
2017-10-26T16:50:44.532Z,92.00
2017-10-26T16:53:11.771Z,91.90
2017-10-26T16:55:38.572Z,92.00
2017-10-26T16:58:06.015Z,92.10
2017-10-26T17:00:33.641Z,92.20
2017-10-26T17:03:00.294Z,92.70
2017-10-26T17:05:26.961Z,92.40
2017-10-26T17:07:54.840Z,92.60
2017-10-26T17:10:22.549Z,92.80
2017-10-26T17:12:49.156Z,92.80
2017-10-26T17:15:16.374Z,93.00
2017-10-26T17:17:43.224Z,93.10
2017-10-26T17:20:09.755Z,93.10
2017-10-26T17:22:36.747Z,93.40
2017-10-26T17:25:03.409Z,93.20
2017-10-26T17:27:30.683Z,93.30
2017-10-26T17:29:57.549Z,93.30
2017-10-26T17:32:24.413Z,93.30
2017-10-26T17:34:50.975Z,93.30
2017-10-26T17:37:18.554Z,93.30
2017-10-26T17:39:45.218Z,93.30
2017-10-26T17:42:11.877Z,93.40
2017-10-26T17:44:38.440Z,93.50
2017-10-26T17:47:04.992Z,93.50
2017-10-26T17:49:31.550Z,93.50
2017-10-26T17:51:58.746Z,93.70
2017-10-26T17:54:25.182Z,93.70
2017-10-26T17:56:51.737Z,93.80
2017-10-26T17:59:18.398Z,93.80
2017-10-26T18:01:44.957Z,93.90
2017-10-26T18:04:12.918Z,94.00
2017-10-26T18:06:40.224Z,94.40
2017-10-26T18:09:07.701Z,94.10
2017-10-26T18:11:34.465Z,94.10
2017-10-26T18:14:01.228Z,94.20
2017-10-26T18:16:27.890Z,94.20
2017-10-26T18:18:56.388Z,94.40
2017-10-26T18:21:23.263Z,94.40
2017-10-26T18:23:50.120Z,94.50
2017-10-26T18:26:18.007Z,94.50
2017-10-26T18:28:44.873Z,94.50
2017-10-26T18:31:12.147Z,94.40
2017-10-26T18:33:39.322Z,94.30
2017-10-26T18:36:06.697Z,94.40
2017-10-26T18:38:33.879Z,94.30
2017-10-26T18:41:02.565Z,94.10
2017-10-26T18:43:30.769Z,94.50
2017-10-26T18:45:58.353Z,94.30
2017-10-26T18:48:24.828Z,94.30
2017-10-26T18:50:58.504Z,94.40
2017-10-26T18:53:25.500Z,94.50
2017-10-26T18:55:52.157Z,94.50
2017-10-26T18:58:22.408Z,94.70
2017-10-26T19:00:50.386Z,94.60
2017-10-26T19:03:17.046Z,94.70
2017-10-26T19:05:44.526Z,94.80
2017-10-26T19:08:11.183Z,95.00
2017-10-26T19:10:38.665Z,95.10
2017-10-26T19:13:06.455Z,95.10
2017-10-26T19:15:33.727Z,95.20
2017-10-26T19:18:01.460Z,95.40
2017-10-26T19:20:28.601Z,95.30
2017-10-26T19:22:56.678Z,95.40
2017-10-26T19:25:23.640Z,95.40
2017-10-26T19:27:50.303Z,95.50
2017-10-26T19:30:17.063Z,95.50
2017-10-26T19:32:44.032Z,95.70
2017-10-26T19:35:10.895Z,95.80
2017-10-26T19:37:37.555Z,95.90
2017-10-26T19:40:04.527Z,96.00
2017-10-26T19:42:32.209Z,96.10
2017-10-26T19:44:59.278Z,96.10
2017-10-26T19:47:26.143Z,96.20
2017-10-26T19:49:54.339Z,96.20
2017-10-26T19:52:20.999Z,96.30
2017-10-26T19:54:48.272Z,96.40
2017-10-26T19:57:15.654Z,96.50
2017-10-26T19:59:43.028Z,96.60
2017-10-26T20:02:11.594Z,96.70
2017-10-26T20:04:38.291Z,96.70
2017-10-26T20:07:05.773Z,96.70
2017-10-26T20:09:33.798Z,96.70
2017-10-26T20:12:02.058Z,96.70
2017-10-26T20:14:29.537Z,96.70
2017-10-26T20:16:56.283Z,96.80
2017-10-26T20:19:23.683Z,97.00
2017-10-26T20:21:50.354Z,97.00
2017-10-26T20:24:16.895Z,97.10
2017-10-26T20:26:43.555Z,97.10
2017-10-26T20:29:10.109Z,97.10
2017-10-26T20:31:37.603Z,97.20
2017-10-26T20:34:04.150Z,97.10
2017-10-26T20:36:31.541Z,97.10
2017-10-26T20:38:58.095Z,97.10
2017-10-26T20:41:25.544Z,97.00
2017-10-26T20:43:52.943Z,97.00
2017-10-26T20:46:20.217Z,97.00
2017-10-26T20:48:46.778Z,96.90
2017-10-26T20:51:19.472Z,96.80
2017-10-26T20:53:52.164Z,96.80
2017-10-26T20:56:25.780Z,96.90
2017-10-26T20:58:59.200Z,96.80
2017-10-26T21:01:31.862Z,96.80
2017-10-26T21:04:04.582Z,96.80
2017-10-26T21:06:32.062Z,96.80
2017-10-26T21:09:04.549Z,96.80
2017-10-26T21:11:36.964Z,96.80
2017-10-26T21:14:20.286Z,96.80
2017-10-26T21:16:46.709Z,96.70
2017-10-26T21:19:13.891Z,96.50
2017-10-26T21:21:41.085Z,96.60
2017-10-26T21:24:07.543Z,96.50
2017-10-26T21:26:34.034Z,96.60
2017-10-26T21:29:01.079Z,96.50
2017-10-26T21:31:27.515Z,96.50
2017-10-26T21:33:53.959Z,96.50
2017-10-26T21:36:21.238Z,96.60
2017-10-26T21:38:47.800Z,96.40
2017-10-26T21:41:14.280Z,96.40
2017-10-26T21:43:40.741Z,96.50
2017-10-26T21:46:07.188Z,96.50
2017-10-26T21:48:33.620Z,96.50
2017-10-26T21:51:00.780Z,96.50
2017-10-26T21:53:27.966Z,96.50
2017-10-26T21:55:54.440Z,96.50
2017-10-26T21:58:20.888Z,96.50
2017-10-26T22:00:47.351Z,96.40
2017-10-26T22:03:13.896Z,96.40
2017-10-26T22:05:40.374Z,96.40
2017-10-26T22:08:07.741Z,96.50
2017-10-26T22:10:34.788Z,96.40
2017-10-26T22:13:02.102Z,96.30
2017-10-26T22:15:28.541Z,96.20
2017-10-26T22:17:54.957Z,96.10
2017-10-26T22:20:22.360Z,96.00
2017-10-26T22:22:48.917Z,96.10
2017-10-26T22:25:16.192Z,95.80
2017-10-26T22:27:42.676Z,95.80
2017-10-26T22:30:09.195Z,95.80
2017-10-26T22:32:36.407Z,95.70
2017-10-26T22:35:03.322Z,95.70
2017-10-26T22:37:29.906Z,95.80
2017-10-26T22:39:57.730Z,95.60
2017-10-26T22:42:24.230Z,95.60
2017-10-26T22:44:51.378Z,95.60
2017-10-26T22:47:17.814Z,95.60
2017-10-26T22:49:44.334Z,95.60
2017-10-26T22:52:11.266Z,95.60
2017-10-26T22:54:37.719Z,95.60
2017-10-26T22:57:04.187Z,95.60
2017-10-26T22:59:30.772Z,95.60
2017-10-26T23:01:58.045Z,95.60
2017-10-26T23:04:25.322Z,95.90
2017-10-26T23:06:52.523Z,95.60
2017-10-26T23:09:19.053Z,95.60
2017-10-26T23:11:45.535Z,95.70
2017-10-26T23:14:11.988Z,95.80
2017-10-26T23:16:39.158Z,95.70
2017-10-26T23:19:05.715Z,95.80
2017-10-26T23:21:32.252Z,95.70
2017-10-26T23:23:58.820Z,95.80
2017-10-26T23:26:25.267Z,95.70
2017-10-26T23:28:51.827Z,95.80
2017-10-26T23:31:19.102Z,95.80
2017-10-26T23:33:46.379Z,95.80
2017-10-26T23:36:12.933Z,95.80
2017-10-26T23:38:40.209Z,95.90
2017-10-26T23:41:07.482Z,95.90
2017-10-26T23:43:34.670Z,95.90
2017-10-26T23:46:02.054Z,95.90
2017-10-26T23:48:28.494Z,96.00
2017-10-26T23:50:56.990Z,96.00
2017-10-26T23:53:23.430Z,96.00
2017-10-26T23:55:51.174Z,96.00
2017-10-26T23:58:17.687Z,96.00
